x

Buoy E01 - Central Maine Shelf (44032) Wave Buoy

7:04 - Mon 27th Feb 2017 All times are EST. -5 hours from GMT.

  • Sig Wave height 4.9ft
  • Peak Period 5s
  • Wind
    25mph, 29mph gusts
  • Sea Temp 40°f
  • Ar Temp 37°f
  • Sea Pressure 1023.2mb
  • Buoy E01 - Central Maine Shelf
  • Buoy E01 - Central Maine Shelf

More Historic Weather Station data

Upgrade to MSW Pro to gain access to the past 30 days of data for over 8000 Wavebouys and Weather Stations around the globe.

Join Pro

Comparision Forecast

View Surf forecast
   
Seg 02/27 7:04 5ft 5s 25 29 mph 1023.2mb 40f 37f
6:04 5ft 5s 22 27 mph 1022.7mb 40f 36f
5:04 6.5ft 11s 22 27 mph 1022.4mb 40f 36f
4:04 5ft 11s 20 25 mph 1022.1mb 40f 35f
3:04 5ft 11s 18 25 mph 1021.8mb 40f 35f
2:04 4.5ft 11s 11 16 mph 1021.6mb 40f 33f
1:04 5ft 11s 11 18 mph 1020.9mb 40f 32f
12:04 4.5ft 11s 11 13 mph 1020mb 40f 31f
Dom 02/26 11:04 4.5ft 11s 16 18 mph 1019.2mb 40f 31f
10:04 3.5ft 5s 20 25 mph 1018.4mb 41f 32f
9:04 3.5ft 4s 25 29 mph 1017.1mb 41f 34f
8:04 5.5ft 11s 22 25 mph 1015.8mb 40f 35f
7:04 6.5ft 11s 22 25 mph 1014.4mb 40f 35f
6:04 7ft 11s 22 27 mph 1012.8mb 40f 37f
5:04 7ft 11s 22 25 mph 1011.2mb 40f 38f
4:04 6.5ft 11s 20 25 mph 1009.6mb 40f 39f
3:04 7.5ft 11s 18 22 mph 1008.2mb 40f 39f
2:04 7.5ft 11s 20 22 mph 1007.1mb 40f 39f
1:04 4.5ft 5s 20 27 mph 1006.2mb 41f 39f
12:04 5.5ft 11s 18 22 mph 1005.5mb 41f 39f
11:04 5.5ft 11s 18 25 mph 1004.9mb 41f 39f
10:04 6ft 11s 16 22 mph 1004.3mb 41f 39f
9:04 5ft 11s 16 20 mph 1003.7mb 41f 39f
8:04 3ft 4s 20 25 mph 1002.4mb 41f 39f
7:04 3ft 3s 22 29 mph 1001.1mb 42f 40f
6:04 2.5ft 5s 13 16 mph 1000mb 42f 40f
5:04 2.5ft 5s 16 20 mph 998.7mb 42f 40f
4:04 3.5ft 4s 25 31 mph 996.8mb 42f 41f
3:04 3ft 5s 20 25 mph 995.2mb 42f 42f
2:04 3.5ft 5s 9 11 mph 994.4mb 42f 43f
1:04 4ft 5s 16 20 mph 994.7mb 42f 44f
12:04 3.5ft 5s 27 34 mph 995.1mb 42f 46f
Sáb 02/25 11:04 3.5ft 5s 18 20 mph 995.3mb 42f 44f
10:04 3.5ft 5s 18 20 mph 996.4mb 42f 44f
9:04 2.5ft 4s 13 16 mph 998.3mb 42f 42f
8:04 3ft 5s 11 13 mph 1000.3mb 42f 43f
7:04 3ft 4s 16 20 mph 1000.5mb 42f 43f
6:04 3ft 5s 16 18 mph 1002mb 42f 44f
5:04 2.5ft 5s 13 16 mph 1003.8mb 42f 44f
4:04 2.5ft 5s 9 11 mph 1005.4mb 42f 44f
3:04 2.5ft 5s 11 13 mph 1006.2mb 42f 44f
2:04 4ft 11s 13 16 mph 1006.7mb 42f 44f
1:04 4ft 11s 13 16 mph 1007.4mb 42f 44f
12:04 3ft 5s 16 18 mph 1008.2mb 42f 44f
11:04 3.5ft 5s 11 13 mph 1009.5mb 42f 44f
10:04 3.5ft 5s 18 20 mph 1010.2mb 41f 45f
9:04 3.5ft 5s 13 16 mph 1010.5mb 41f 44f
8:04 3.5ft 5s 13 16 mph 1011mb 41f 43f
7:04 3.5ft 5s 16 18 mph 1010.8mb 41f 43f
5:04 3.5ft 5s 18 20 mph 1011.2mb 41f 43f
4:04 3.5ft 5s 18
mph
1011.2mb 41f 42f
3:04 4ft 5s 16 18 mph 1011.2mb 41f 42f
2:04 3.5ft 5s 13 16 mph 1011.2mb 41f 45f
1:04 4.5ft 5s 16 18 mph 1011.2mb 41f 45f
12:04 5ft 5s 16 18 mph 1011mb 41f 45f
Sex 02/24 11:04 4.5ft 5s 16 18 mph 1010.6mb 41f 45f
10:04 5ft 5s 18 20 mph 1010.3mb 41f 46f
9:04 5ft 5s 18 20 mph 1010.7mb 41f 46f
8:04 4.5ft 5s 20 25 mph 1010.7mb 41f 46f
7:04 3.5ft 11s 16 18 mph 1011mb 41f 46f
6:04 3.5ft 11s 7
mph
1011.3mb 41f 45f
5:04 3.5ft 11s 7 9 mph 1011.2mb 41f 44f
4:04 3.5ft 11s 11
mph
1011.2mb 41f 44f
3:04 3.5ft 11s 7 9 mph 1011.7mb 40f 42f
2:04 4ft 11s 7 9 mph 1012.2mb 40f 42f
1:04 3.5ft 11s 9
mph
1013mb 40f 42f
12:04 3.5ft 11s 4 7 mph 1012.7mb 40f 42f
11:04 3.5ft 11s 4 7 mph 1013.3mb 40f 42f
10:04 4ft 11s 4 7 mph 1014.2mb 40f 42f
9:04 3.5ft 11s 7 9 mph 1013.5mb 39f 42f
8:04 4.5ft 6s 7 9 mph 1013.1mb 39f 41f
7:04 4.5ft 6s 2 4 mph 1012.8mb 39f 40f
6:04 3.5ft 6s 2 4 mph 1012.4mb 39f 40f
5:04 4ft 6s 7 9 mph 1012.3mb 39f 41f
4:04 4ft 6s 7 9 mph 1011.3mb 39f 41f
3:04 4.5ft 6s 9
mph
1010.6mb 39f 41f
2:04 5ft 5s 11 13 mph 1010.2mb 39f 43f
1:04 6ft 6s 18 20 mph 1009.3mb 40f 45f
12:04 7.5ft 6s 18 22 mph 1008.9mb 40f 45f
Qui 02/23 11:04 7ft 5s 20 25 mph 1008.1mb 40f 45f
10:04 5.5ft 5s 22 25 mph 1007.6mb 41f 45f
9:04 5ft 5s 22 27 mph 1007.1mb 41f 46f
8:04 4.5ft 5s 22 27 mph 1006.7mb 41f 45f
7:04 4.5ft 5s 20 25 mph 1006.5mb 41f 45f
6:04 4.5ft 5s 16 20 mph 1006.5mb 41f 44f
5:04 3.5ft 5s 18 20 mph 1006.1mb 40f 44f
4:04 4.5ft 11s 16 18 mph 1005.9mb 39f 44f
3:04 2.5ft 4s 9 11 mph 1007.1mb 39f 42f
2:04 4ft 11s 11 13 mph 1007.6mb 39f 41f